Time;durP1;ratioP1;P1;durP2;ratioP2;P2;SDS_P1;SDS_P2;PMS_P1;PMS_P2;Temp;Humidity;BMP_temperature;BMP_pressure;BME280_temperature;BME280_humidity;BME280_pressure;Samples;Min_cycle;Max_cycle;Signal;HPM_P1;HPM_P2
2021/11/12 08:43:03;;;;;;;;;;;;;;;;;;403894;23;1609;-83
2021/11/12 08:43:35;;;;;;;;;;;;;;;;;;334995;29;1654;-83
2021/11/12 08:43:54;;;;;;;;;;;;;;;;;;335382;29;922;-87
2021/11/12 08:44:35;;;;;;;;;;;;;;;;;;334047;29;1029;-84
2021/11/12 08:45:20;;;;;;;;;;;;;;;;;;331397;29;848;-82
2021/11/12 08:45:22;;;;;;;;;;;;;;;;;;333637;29;1176;-81
2021/11/12 08:47:33;;;;;;;;;;;;;;;;;;332004;29;883;-83
2021/11/12 08:47:47;;;;;;;;;;;;;;;;;;332742;29;1426;-83
2021/11/12 08:48:05;;;;;;;;;;;;;;;;;;332600;29;1284;-83
2021/11/12 08:48:36;;;;;;;;;;;;;;;;;;332776;29;995;-79
2021/11/12 08:49:10;;;;;;;;;;;;;;;;;;332660;29;1372;-79
2021/11/12 08:49:29;;;;;;;;;;;;;;;;;;332757;29;788;-81
2021/11/12 08:49:44;;;;;;;;;;;;;;;;;;332786;29;962;-81
2021/11/12 08:50:02;;;;;;;;;;;;;;;;;;335285;29;863;-84
2021/11/12 08:50:21;;;;;;;;;;;;;;;;;;335377;29;977;-82
2021/11/12 08:50:33;;;;;;;;;;;;;;;;;;335378;29;1025;-83
2021/11/12 08:50:44;;;;;;;;;;;;;;;;;;333976;29;811;-84
2021/11/12 08:50:54;;;;;;;;;;;;;;;;;;334067;29;923;-84
2021/11/12 08:51:10;;;;;;;;;;;;;;;;;;334047;29;914;-84
2021/11/12 08:51:21;;;;;;;;;;;;;;;;;;332643;29;1411;-80
2021/11/12 08:51:34;;;;;;;;;;;;;;;;;;332660;29;943;-81
2021/11/12 08:51:45;;;;;;;;;;;;;;;;;;331342;29;1166;-83
2021/11/12 08:52:45;;;;;;;;;;;;;;;;;;331519;29;979;-82
2021/11/12 08:53:04;;;;;;;;;;;;;;;;;;332614;29;848;-82
2021/11/12 08:53:16;;;;;;;;;;;;;;;;;;333103;29;820;-80
2021/11/12 08:53:26;;;;;;;;;;;;;;;;;;333955;29;950;-78
2021/11/12 08:53:37;;;;;;;;;;;;;;;;;;333970;29;926;-79
2021/11/12 08:53:48;;;;;;;;;;;;;;;;;;335018;29;1249;-78
2021/11/12 08:54:00;;;;;;;;;;;;;;;;;;335057;29;1568;-78
2021/11/12 08:54:11;;;;;;;;;;;;;;;;;;335290;29;796;-79
2021/11/12 08:54:26;;;;;;;;;;;;;;;;;;333889;29;875;-81
2021/11/12 08:54:39;;;;;;;;;;;;;;;;;;333765;29;1951;-78
2021/11/12 08:54:49;;;;;;;;;;;;;;;;;;333654;29;2640;-84
2021/11/12 08:55:06;;;;;;;;;;;;;;;;;;333783;29;883;-79
2021/11/12 08:55:23;;;;;;;;;;;;;;;;;;334010;29;914;-78
2021/11/12 08:55:34;;;;;;;;;;;;;;;;;;332739;29;828;-80
2021/11/12 08:55:47;;;;;;;;;;;;;;;;;;332700;29;839;-78
2021/11/12 08:55:57;;;;;;;;;;;;;;;;;;332524;29;934;-79
2021/11/12 08:56:12;;;;;;;;;;;;;;;;;;332701;29;931;-82
2021/11/12 08:56:23;;;;;;;;;;;;;;;;;;333967;29;977;-80
2021/11/12 08:56:34;;;;;;;;;;;;;;;;;;332572;29;1372;-78
2021/11/12 08:56:51;;;;;;;;;;;;;;;;;;332717;29;851;-80
2021/11/12 08:57:06;;;;;;;;;;;;;;;;;;333818;29;1583;-79
2021/11/12 08:57:16;;;;;;;;;;;;;;;;;;333927;29;870;-81
2021/11/12 08:57:27;;;;;;;;;;;;;;;;;;333995;29;839;-83
2021/11/12 08:57:58;;;;;;;;;;;;;;;;;;330185;30;1028;-81
2021/11/12 08:58:11;;;;;;;;;;;;;;;;;;330048;30;820;-78
2021/11/12 08:58:22;;;;;;;;;;;;;;;;;;333622;29;987;-79
2021/11/12 08:58:32;;;;;;;;;;;;;;;;;;333517;29;890;-82
2021/11/12 08:59:13;;;;;;;;;;;;;;;;;;331379;29;1181;-82
2021/11/12 08:59:24;;;;;;;;;;;;;;;;;;331379;29;967;-81
2021/11/12 08:59:36;;;;;;;;;;;;;;;;;;331430;29;836;-81
2021/11/12 08:59:49;;;;;;;;;;;;;;;;;;331350;29;768;-78
2021/11/12 09:00:02;;;;;;;;;;;;;;;;;;331200;29;1600;-79
2021/11/12 09:00:13;;;;;;;;;;;;;;;;;;331499;29;862;-78
2021/11/12 09:00:24;;;;;;;;;;;;;;;;;;331398;29;848;-81
2021/11/12 09:00:35;;;;;;;;;;;;;;;;;;331364;29;971;-79
2021/11/12 09:00:46;;;;;;;;;;;;;;;;;;331457;29;993;-80
2021/11/12 09:00:56;;;;;;;;;;;;;;;;;;331490;29;1059;-79
2021/11/12 09:01:07;;;;;;;;;;;;;;;;;;331468;29;836;-81
2021/11/12 09:01:18;;;;;;;;;;;;;;;;;;331516;29;807;-80
2021/11/12 09:01:29;;;;;;;;;;;;;;;;;;331351;29;1265;-80
2021/11/12 09:01:39;;;;;;;;;;;;;;;;;;331532;29;853;-78
2021/11/12 09:01:54;;;;;;;;;;;;;;;;;;331432;29;805;-78
2021/11/12 09:02:11;;;;;;;;;;;;;;;;;;331509;29;793;-80
2021/11/12 09:02:24;;;;;;;;;;;;;;;;;;331485;29;824;-78
2021/11/12 09:02:34;;;;;;;;;;;;;;;;;;333378;29;836;-80
2021/11/12 09:02:46;;;;;;;;;;;;;;;;;;333859;29;1486;-79
2021/11/12 09:03:00;;;;;;;;;;;;;;;;;;333633;29;1425;-79
2021/11/12 09:03:11;;;;;;;;;;;;;;;;;;333899;29;824;-78
2021/11/12 09:03:22;;;;;;;;;;;;;;;;;;334195;29;1041;-80
2021/11/12 09:03:33;;;;;;;;;;;;;;;;;;334272;29;1516;-82
2021/11/12 09:03:43;;;;;;;;;;;;;;;;;;334057;29;784;-82
2021/11/12 09:03:54;;;;;;;;;;;;;;;;;;334058;29;991;-80
2021/11/12 09:04:05;;;;;;;;;;;;;;;;;;333949;29;887;-78
2021/11/12 09:04:15;;;;;;;;;;;;;;;;;;334018;29;852;-80
2021/11/12 09:04:27;;;;;;;;;;;;;;;;;;332478;29;864;-79
2021/11/12 09:04:38;;;;;;;;;;;;;;;;;;332666;29;993;-78
2021/11/12 09:04:48;;;;;;;;;;;;;;;;;;332620;29;958;-82
2021/11/12 09:04:59;;;;;;;;;;;;;;;;;;333036;29;1607;-79
2021/11/12 09:05:24;;;;;;;;;;;;;;;;;;333979;29;811;-80
2021/11/12 09:05:35;;;;;;;;;;;;;;;;;;334019;29;828;-78
2021/11/12 09:05:45;;;;;;;;;;;;;;;;;;334008;29;870;-78
2021/11/12 09:05:55;;;;;;;;;;;;;;;;;;334004;29;866;-78
2021/11/12 09:06:06;;;;;;;;;;;;;;;;;;334000;29;998;-79
2021/11/12 09:06:17;;;;;;;;;;;;;;;;;;334051;29;975;-81
2021/11/12 09:06:27;;;;;;;;;;;;;;;;;;332676;29;1395;-79
2021/11/12 09:06:38;;;;;;;;;;;;;;;;;;332723;29;968;-80
2021/11/12 09:06:48;;;;;;;;;;;;;;;;;;332732;29;805;-82
2021/11/12 09:06:59;;;;;;;;;;;;;;;;;;333941;29;1064;-79
2021/11/12 09:07:13;;;;;;;;;;;;;;;;;;333905;29;966;-79
2021/11/12 09:07:23;;;;;;;;;;;;;;;;;;333979;29;951;-78
2021/11/12 09:07:35;;;;;;;;;;;;;;;;;;333955;29;887;-79
2021/11/12 09:07:46;;;;;;;;;;;;;;;;;;334007;29;898;-79
2021/11/12 09:07:57;;;;;;;;;;;;;;;;;;334036;29;1002;-82
2021/11/12 09:08:30;;;;;;;;;;;;;;;;;;333989;29;923;-78
2021/11/12 09:08:41;;;;;;;;;;;;;;;;;;331427;29;987;-81
2021/11/12 09:09:07;;;;;;;;;;;;;;;;;;331270;29;880;-83
2021/11/12 09:09:17;;;;;;;;;;;;;;;;;;331280;29;845;-78
2021/11/12 09:09:28;;;;;;;;;;;;;;;;;;331346;29;792;-81
2021/11/12 09:09:39;;;;;;;;;;;;;;;;;;331189;29;1763;-81
2021/11/12 09:09:51;;;;;;;;;;;;;;;;;;331362;29;1082;-79
2021/11/12 09:10:02;;;;;;;;;;;;;;;;;;331388;29;903;-79
2021/11/12 09:10:12;;;;;;;;;;;;;;;;;;331430;29;963;-78
2021/11/12 09:10:24;;;;;;;;;;;;;;;;;;331450;29;1014;-79
2021/11/12 09:10:35;;;;;;;;;;;;;;;;;;331473;29;919;-79
2021/11/12 09:10:45;;;;;;;;;;;;;;;;;;331187;29;1562;-78
2021/11/12 09:10:56;;;;;;;;;;;;;;;;;;331455;29;900;-78
2021/11/12 09:11:07;;;;;;;;;;;;;;;;;;331474;29;934;-78
2021/11/12 09:11:18;;;;;;;;;;;;;;;;;;331435;29;919;-81
2021/11/12 09:11:28;;;;;;;;;;;;;;;;;;331324;29;1118;-82
2021/11/12 09:11:39;;;;;;;;;;;;;;;;;;331410;29;923;-80
2021/11/12 09:11:50;;;;;;;;;;;;;;;;;;330115;30;1181;-80
2021/11/12 09:12:00;;;;;;;;;;;;;;;;;;330095;30;1170;-79
2021/11/12 09:12:13;;;;;;;;;;;;;;;;;;328687;30;1649;-78
2021/11/12 09:12:25;;;;;;;;;;;;;;;;;;328876;30;951;-79
2021/11/12 09:12:35;;;;;;;;;;;;;;;;;;328959;30;1010;-79
2021/11/12 09:12:50;;;;;;;;;;;;;;;;;;328987;30;805;-81
2021/11/12 09:13:30;;;;;;;;;;;;;;;;;;327708;30;853;-80
2021/11/12 09:14:04;;;;;;;;;;;;;;;;;;328790;30;1650;-80
2021/11/12 09:14:18;;;;;;;;;;;;;;;;;;331434;29;939;-80
2021/11/12 09:14:29;;;;;;;;;;;;;;;;;;331358;29;941;-81
2021/11/12 09:14:47;;;;;;;;;;;;;;;;;;331173;29;1939;-79
2021/11/12 09:14:59;;;;;;;;;;;;;;;;;;331384;29;1045;-81
2021/11/12 09:15:30;;;;;;;;;;;;;;;;;;331399;29;1146;-80
2021/11/12 09:15:46;;;;;;;;;;;;;;;;;;331393;29;1026;-81
2021/11/12 09:16:03;;;;;;;;;;;;;;;;;;331308;29;856;-80
2021/11/12 09:16:15;;;;;;;;;;;;;;;;;;331391;29;903;-80
2021/11/12 09:16:31;;;;;;;;;;;;;;;;;;331406;29;844;-80
2021/11/12 09:16:44;;;;;;;;;;;;;;;;;;331205;29;1589;-80
2021/11/12 09:16:55;;;;;;;;;;;;;;;;;;330607;29;978;-80
2021/11/12 09:17:16;;;;;;;;;;;;;;;;;;330574;29;812;-82
2021/11/12 09:17:29;;;;;;;;;;;;;;;;;;331425;29;871;-80
2021/11/12 09:17:45;;;;;;;;;;;;;;;;;;331361;29;1053;-80
2021/11/12 09:17:57;;;;;;;;;;;;;;;;;;331347;29;1029;-80
2021/11/12 09:18:07;;;;;;;;;;;;;;;;;;331278;29;809;-79
2021/11/12 09:18:30;;;;;;;;;;;;;;;;;;331375;29;895;-80
2021/11/12 09:18:41;;;;;;;;;;;;;;;;;;330125;30;998;-80
2021/11/12 09:19:08;;;;;;;;;;;;;;;;;;330213;30;778;-80
2021/11/12 09:19:18;;;;;;;;;;;;;;;;;;330180;30;912;-79
2021/11/12 09:19:28;;;;;;;;;;;;;;;;;;330179;30;840;-81
2021/11/12 09:19:47;;;;;;;;;;;;;;;;;;330041;30;915;-80
2021/11/12 09:19:57;;;;;;;;;;;;;;;;;;330168;30;844;-81
2021/11/12 09:20:08;;;;;;;;;;;;;;;;;;330166;30;1140;-81
2021/11/12 09:20:19;;;;;;;;;;;;;;;;;;330181;30;872;-82
2021/11/12 09:20:30;;;;;;;;;;;;;;;;;;330036;30;1025;-82
2021/11/12 09:20:40;;;;;;;;;;;;;;;;;;331315;29;809;-82
2021/11/12 09:20:51;;;;;;;;;;;;;;;;;;330167;30;999;-82
2021/11/12 09:21:02;;;;;;;;;;;;;;;;;;330245;30;852;-82
2021/11/12 09:21:12;;;;;;;;;;;;;;;;;;330067;30;985;-82
2021/11/12 09:21:23;;;;;;;;;;;;;;;;;;328948;30;947;-83
2021/11/12 09:21:51;;;;;;;;;;;;;;;;;;327760;30;592;-82
2021/11/12 09:22:02;;;;;;;;;;;;;;;;;;327780;30;959;-82
2021/11/12 09:22:13;;;;;;;;;;;;;;;;;;327646;30;872;-83
2021/11/12 09:22:26;;;;;;;;;;;;;;;;;;327687;30;918;-83
2021/11/12 09:23:06;;;;;;;;;;;;;;;;;;328928;30;1015;-84
2021/11/12 09:23:17;;;;;;;;;;;;;;;;;;329068;30;1214;-84
2021/11/12 09:23:27;;;;;;;;;;;;;;;;;;330503;29;1010;-83
2021/11/12 09:23:38;;;;;;;;;;;;;;;;;;331453;29;840;-83
2021/11/12 09:23:48;;;;;;;;;;;;;;;;;;331411;29;1093;-82
2021/11/12 09:23:59;;;;;;;;;;;;;;;;;;331394;29;1002;-82
2021/11/12 09:24:10;;;;;;;;;;;;;;;;;;330091;30;1175;-82
2021/11/12 09:24:20;;;;;;;;;;;;;;;;;;330026;30;1156;-82
2021/11/12 09:24:31;;;;;;;;;;;;;;;;;;329927;30;1566;-82
2021/11/12 09:24:43;;;;;;;;;;;;;;;;;;330014;30;1388;-84
2021/11/12 09:24:53;;;;;;;;;;;;;;;;;;329988;30;812;-83
2021/11/12 09:25:04;;;;;;;;;;;;;;;;;;330218;30;864;-82
2021/11/12 09:25:15;;;;;;;;;;;;;;;;;;330150;30;1015;-82
2021/11/12 09:25:26;;;;;;;;;;;;;;;;;;330126;30;841;-82
2021/11/12 09:25:36;;;;;;;;;;;;;;;;;;330172;30;473;-82
2021/11/12 09:25:47;;;;;;;;;;;;;;;;;;330209;30;967;-82
2021/11/12 09:25:58;;;;;;;;;;;;;;;;;;330134;30;1042;-83
2021/11/12 09:26:09;;;;;;;;;;;;;;;;;;330185;30;1046;-83
2021/11/12 09:26:19;;;;;;;;;;;;;;;;;;330216;30;801;-84
2021/11/12 09:26:32;;;;;;;;;;;;;;;;;;328898;30;476;-82
2021/11/12 09:26:43;;;;;;;;;;;;;;;;;;327560;30;991;-82
2021/11/12 09:26:53;;;;;;;;;;;;;;;;;;327729;30;982;-81
2021/11/12 09:27:04;;;;;;;;;;;;;;;;;;327562;30;923;-82
2021/11/12 09:27:15;;;;;;;;;;;;;;;;;;327718;30;963;-82
2021/11/12 09:27:25;;;;;;;;;;;;;;;;;;326668;30;974;-82
2021/11/12 09:27:36;;;;;;;;;;;;;;;;;;328751;30;922;-82
2021/11/12 09:27:47;;;;;;;;;;;;;;;;;;328987;30;959;-82
2021/11/12 09:27:57;;;;;;;;;;;;;;;;;;327754;30;812;-82
2021/11/12 09:28:28;;;;;;;;;;;;;;;;;;328864;30;836;-82
2021/11/12 09:28:39;;;;;;;;;;;;;;;;;;328935;30;980;-83
2021/11/12 09:28:49;;;;;;;;;;;;;;;;;;328782;30;1329;-82
2021/11/12 09:29:00;;;;;;;;;;;;;;;;;;328882;30;1109;-84
2021/11/12 09:29:11;;;;;;;;;;;;;;;;;;328865;30;821;-83
2021/11/12 09:29:22;;;;;;;;;;;;;;;;;;328845;30;1046;-83
2021/11/12 09:29:32;;;;;;;;;;;;;;;;;;328918;30;940;-83
2021/11/12 09:29:43;;;;;;;;;;;;;;;;;;328826;30;857;-83
2021/11/12 09:29:54;;;;;;;;;;;;;;;;;;329443;30;994;-83
2021/11/12 09:30:06;;;;;;;;;;;;;;;;;;330117;30;943;-82
2021/11/12 09:30:22;;;;;;;;;;;;;;;;;;330039;30;1014;-83
2021/11/12 09:30:35;;;;;;;;;;;;;;;;;;330152;30;1148;-82
2021/11/12 09:30:46;;;;;;;;;;;;;;;;;;330144;30;915;-81
2021/11/12 09:30:56;;;;;;;;;;;;;;;;;;330045;30;907;-83
2021/11/12 09:31:10;;;;;;;;;;;;;;;;;;330181;30;1002;-83
2021/11/12 09:31:21;;;;;;;;;;;;;;;;;;328811;30;1088;-82
2021/11/12 09:31:32;;;;;;;;;;;;;;;;;;328803;30;852;-83
2021/11/12 09:31:48;;;;;;;;;;;;;;;;;;328975;30;845;-82
2021/11/12 09:31:59;;;;;;;;;;;;;;;;;;328909;30;936;-84
2021/11/12 09:32:10;;;;;;;;;;;;;;;;;;328913;30;817;-84
2021/11/12 09:32:20;;;;;;;;;;;;;;;;;;328912;30;955;-83
2021/11/12 09:32:31;;;;;;;;;;;;;;;;;;328920;30;1010;-83
2021/11/12 09:32:41;;;;;;;;;;;;;;;;;;328901;30;801;-82
2021/11/12 09:32:53;;;;;;;;;;;;;;;;;;328913;30;936;-82
2021/11/12 09:33:04;;;;;;;;;;;;;;;;;;328870;30;932;-84
2021/11/12 09:33:15;;;;;;;;;;;;;;;;;;329263;30;900;-83
2021/11/12 09:33:44;;;;;;;;;;;;;;;;;;330122;30;870;-84
2021/11/12 09:33:54;;;;;;;;;;;;;;;;;;330179;30;883;-83
2021/11/12 09:34:06;;;;;;;;;;;;;;;;;;330004;30;1187;-85
2021/11/12 09:34:38;;;;;;;;;;;;;;;;;;328934;30;1101;-84
2021/11/12 09:35:18;;;;;;;;;;;;;;;;;;328952;30;1460;-83
2021/11/12 09:35:28;;;;;;;;;;;;;;;;;;330105;30;939;-84
2021/11/12 09:35:39;;;;;;;;;;;;;;;;;;330161;30;855;-83
2021/11/12 09:35:50;;;;;;;;;;;;;;;;;;330048;30;876;-82
2021/11/12 09:36:01;;;;;;;;;;;;;;;;;;328705;30;1206;-83
2021/11/12 09:36:12;;;;;;;;;;;;;;;;;;330166;30;986;-83
2021/11/12 09:36:22;;;;;;;;;;;;;;;;;;330130;30;939;-83
2021/11/12 09:36:48;;;;;;;;;;;;;;;;;;330142;30;825;-83
2021/11/12 09:36:59;;;;;;;;;;;;;;;;;;330167;30;820;-80
2021/11/12 09:37:10;;;;;;;;;;;;;;;;;;328907;30;908;-80
2021/11/12 09:37:21;;;;;;;;;;;;;;;;;;328810;30;959;-81
2021/11/12 09:37:31;;;;;;;;;;;;;;;;;;331453;29;784;-80
2021/11/12 09:37:48;;;;;;;;;;;;;;;;;;331371;29;927;-83
2021/11/12 09:37:58;;;;;;;;;;;;;;;;;;330139;30;987;-80
2021/11/12 09:38:09;;;;;;;;;;;;;;;;;;330056;30;923;-79
2021/11/12 09:38:19;;;;;;;;;;;;;;;;;;330122;30;852;-81
2021/11/12 09:38:30;;;;;;;;;;;;;;;;;;329990;30;1202;-80
2021/11/12 09:38:53;;;;;;;;;;;;;;;;;;330194;30;967;-81
2021/11/12 09:39:04;;;;;;;;;;;;;;;;;;330123;30;860;-81
2021/11/12 09:39:14;;;;;;;;;;;;;;;;;;330126;30;962;-81
2021/11/12 09:39:25;;;;;;;;;;;;;;;;;;329876;30;927;-82
2021/11/12 09:39:36;;;;;;;;;;;;;;;;;;328914;30;832;-81
2021/11/12 09:39:53;;;;;;;;;;;;;;;;;;328902;30;809;-80
2021/11/12 09:40:05;;;;;;;;;;;;;;;;;;330042;30;852;-80
2021/11/12 09:40:35;;;;;;;;;;;;;;;;;;330135;30;991;-79
2021/11/12 09:40:46;;;;;;;;;;;;;;;;;;328816;30;1025;-81
2021/11/12 09:40:56;;;;;;;;;;;;;;;;;;328867;30;1233;-82
2021/11/12 09:41:08;;;;;;;;;;;;;;;;;;329481;30;1027;-81
2021/11/12 09:41:34;;;;;;;;;;;;;;;;;;329003;30;824;-81
2021/11/12 09:41:50;;;;;;;;;;;;;;;;;;328907;30;916;-82
2021/11/12 09:42:02;;;;;;;;;;;;;;;;;;328938;30;857;-81
2021/11/12 09:42:12;;;;;;;;;;;;;;;;;;328942;30;908;-80
2021/11/12 09:42:29;;;;;;;;;;;;;;;;;;328920;30;983;-80
2021/11/12 09:42:41;;;;;;;;;;;;;;;;;;328760;30;831;-80
2021/11/12 09:42:51;;;;;;;;;;;;;;;;;;330209;30;939;-80
2021/11/12 09:43:02;;;;;;;;;;;;;;;;;;330008;29;1215;-80
2021/11/12 09:43:12;;;;;;;;;;;;;;;;;;330111;30;1085;-80
2021/11/12 09:43:23;;;;;;;;;;;;;;;;;;330120;30;935;-81
2021/11/12 09:43:35;;;;;;;;;;;;;;;;;;330172;30;1132;-81
2021/11/12 09:43:49;;;;;;;;;;;;;;;;;;330116;30;951;-81
2021/11/12 09:44:02;;;;;;;;;;;;;;;;;;330143;30;930;-81
2021/11/12 09:44:13;;;;;;;;;;;;;;;;;;330033;30;1109;-80
2021/11/12 09:44:23;;;;;;;;;;;;;;;;;;331403;29;967;-83
2021/11/12 09:44:34;;;;;;;;;;;;;;;;;;328849;30;1700;-86
2021/11/12 09:44:45;;;;;;;;;;;;;;;;;;328906;30;1004;-81
2021/11/12 09:44:55;;;;;;;;;;;;;;;;;;328700;30;940;-80
2021/11/12 09:45:07;;;;;;;;;;;;;;;;;;328805;30;875;-81
2021/11/12 09:45:18;;;;;;;;;;;;;;;;;;328937;30;883;-81
2021/11/12 09:45:29;;;;;;;;;;;;;;;;;;328924;30;805;-81
2021/11/12 09:45:39;;;;;;;;;;;;;;;;;;328927;30;968;-81
2021/11/12 09:45:50;;;;;;;;;;;;;;;;;;328897;30;904;-81
2021/11/12 09:46:31;;;;;;;;;;;;;;;;;;329597;30;753;-81
2021/11/12 09:46:42;;;;;;;;;;;;;;;;;;330099;30;1096;-82
2021/11/12 09:46:59;;;;;;;;;;;;;;;;;;330146;30;879;-81
2021/11/12 09:47:10;;;;;;;;;;;;;;;;;;329985;30;837;-80
2021/11/12 09:47:27;;;;;;;;;;;;;;;;;;328900;30;916;-81
2021/11/12 09:47:38;;;;;;;;;;;;;;;;;;328828;30;789;-81
2021/11/12 09:48:19;;;;;;;;;;;;;;;;;;330031;30;1304;-81
2021/11/12 09:48:48;;;;;;;;;;;;;;;;;;330151;30;975;-80
2021/11/12 09:49:02;;;;;;;;;;;;;;;;;;328852;30;1003;-79
2021/11/12 09:49:13;;;;;;;;;;;;;;;;;;328883;30;911;-81
2021/11/12 09:49:27;;;;;;;;;;;;;;;;;;330027;30;841;-82
2021/11/12 09:49:38;;;;;;;;;;;;;;;;;;331248;29;836;-82
2021/11/12 09:49:49;;;;;;;;;;;;;;;;;;330253;29;1054;-80
2021/11/12 09:50:02;;;;;;;;;;;;;;;;;;330246;29;1379;-82
2021/11/12 09:50:14;;;;;;;;;;;;;;;;;;330060;30;1535;-81
2021/11/12 09:50:26;;;;;;;;;;;;;;;;;;329653;30;840;-79
2021/11/12 09:50:37;;;;;;;;;;;;;;;;;;328916;30;825;-83
2021/11/12 09:50:47;;;;;;;;;;;;;;;;;;327561;30;1142;-83
2021/11/12 09:50:58;;;;;;;;;;;;;;;;;;327670;30;942;-81
2021/11/12 09:51:09;;;;;;;;;;;;;;;;;;328450;30;952;-81
2021/11/12 09:51:20;;;;;;;;;;;;;;;;;;328913;30;1011;-81
2021/11/12 09:51:30;;;;;;;;;;;;;;;;;;328853;30;924;-80
2021/11/12 09:51:41;;;;;;;;;;;;;;;;;;328951;30;1070;-81
2021/11/12 09:51:51;;;;;;;;;;;;;;;;;;328772;30;976;-79
2021/11/12 09:52:02;;;;;;;;;;;;;;;;;;327691;30;1662;-81
2021/11/12 09:52:13;;;;;;;;;;;;;;;;;;328705;30;1527;-81
2021/11/12 09:52:25;;;;;;;;;;;;;;;;;;328832;30;971;-82
2021/11/12 09:52:42;;;;;;;;;;;;;;;;;;328782;30;856;-81
2021/11/12 09:52:54;;;;;;;;;;;;;;;;;;328755;30;984;-81
2021/11/12 09:53:04;;;;;;;;;;;;;;;;;;328859;30;851;-81
2021/11/12 09:53:15;;;;;;;;;;;;;;;;;;328868;30;1086;-81
2021/11/12 09:53:25;;;;;;;;;;;;;;;;;;329411;30;947;-80
2021/11/12 09:53:36;;;;;;;;;;;;;;;;;;330099;30;875;-81
2021/11/12 09:53:46;;;;;;;;;;;;;;;;;;330007;30;1336;-80
2021/11/12 09:54:03;;;;;;;;;;;;;;;;;;330189;30;1002;-80
2021/11/12 09:54:13;;;;;;;;;;;;;;;;;;328843;30;943;-80
2021/11/12 09:54:24;;;;;;;;;;;;;;;;;;329954;30;888;-81
2021/11/12 09:54:34;;;;;;;;;;;;;;;;;;330206;30;797;-84
2021/11/12 09:54:46;;;;;;;;;;;;;;;;;;330080;30;1889;-83
2021/11/12 09:54:57;;;;;;;;;;;;;;;;;;329889;30;1559;-81
2021/11/12 09:55:07;;;;;;;;;;;;;;;;;;330023;30;900;-80
2021/11/12 09:55:31;;;;;;;;;;;;;;;;;;328865;30;1045;-80
2021/11/12 09:56:00;;;;;;;;;;;;;;;;;;328919;30;848;-81
2021/11/12 09:56:11;;;;;;;;;;;;;;;;;;329531;30;820;-80
2021/11/12 09:56:50;;;;;;;;;;;;;;;;;;329878;30;832;-83
2021/11/12 09:57:01;;;;;;;;;;;;;;;;;;328798;30;1067;-82
2021/11/12 09:57:11;;;;;;;;;;;;;;;;;;329139;30;809;-82
2021/11/12 09:57:22;;;;;;;;;;;;;;;;;;330085;30;844;-82
2021/11/12 09:57:32;;;;;;;;;;;;;;;;;;330155;30;979;-80
2021/11/12 09:57:43;;;;;;;;;;;;;;;;;;330165;30;991;-81
2021/11/12 09:57:54;;;;;;;;;;;;;;;;;;330175;30;934;-81
2021/11/12 09:58:05;;;;;;;;;;;;;;;;;;328920;30;892;-80
2021/11/12 09:58:15;;;;;;;;;;;;;;;;;;328808;30;856;-81
2021/11/12 09:58:26;;;;;;;;;;;;;;;;;;328892;30;789;-81
2021/11/12 09:58:37;;;;;;;;;;;;;;;;;;330006;30;1283;-81
2021/11/12 09:58:48;;;;;;;;;;;;;;;;;;329857;30;1510;-84
2021/11/12 09:58:59;;;;;;;;;;;;;;;;;;328777;30;964;-82
2021/11/12 09:59:11;;;;;;;;;;;;;;;;;;328879;30;995;-82
2021/11/12 09:59:45;;;;;;;;;;;;;;;;;;328836;30;1022;-83
2021/11/12 09:59:58;;;;;;;;;;;;;;;;;;328881;30;943;-83
2021/11/12 10:00:13;;;;;;;;;;;;;;;;;;328751;30;1120;-84
2021/11/12 10:00:26;;;;;;;;;;;;;;;;;;328663;30;853;-84
2021/11/12 10:00:38;;;;;;;;;;;;;;;;;;328909;30;943;-83
2021/11/12 10:00:56;;;;;;;;;;;;;;;;;;329591;30;1579;-84
2021/11/12 10:01:06;;;;;;;;;;;;;;;;;;328939;30;924;-84
2021/11/12 10:01:28;;;;;;;;;;;;;;;;;;328865;30;888;-84
2021/11/12 10:01:41;;;;;;;;;;;;;;;;;;328926;30;998;-83
2021/11/12 10:01:52;;;;;;;;;;;;;;;;;;329169;30;1476;-83
2021/11/12 10:02:03;;;;;;;;;;;;;;;;;;330159;30;988;-83
2021/11/12 10:02:14;;;;;;;;;;;;;;;;;;330115;30;1019;-85
2021/11/12 10:02:27;;;;;;;;;;;;;;;;;;328773;30;1126;-84
2021/11/12 10:02:43;;;;;;;;;;;;;;;;;;328823;30;863;-86
2021/11/12 10:02:57;;;;;;;;;;;;;;;;;;328850;30;932;-84
2021/11/12 10:03:09;;;;;;;;;;;;;;;;;;328895;30;963;-84
2021/11/12 10:03:19;;;;;;;;;;;;;;;;;;328847;30;1188;-87
2021/11/12 10:03:34;;;;;;;;;;;;;;;;;;328818;30;1467;-85
2021/11/12 10:03:45;;;;;;;;;;;;;;;;;;328828;30;1151;-83
2021/11/12 10:04:00;;;;;;;;;;;;;;;;;;328816;30;846;-84
2021/11/12 10:04:10;;;;;;;;;;;;;;;;;;328198;30;1867;-85
2021/11/12 10:04:21;;;;;;;;;;;;;;;;;;328492;30;1564;-84
2021/11/12 10:04:33;;;;;;;;;;;;;;;;;;328360;30;1381;-85
2021/11/12 10:04:47;;;;;;;;;;;;;;;;;;327629;30;790;-85
2021/11/12 10:04:57;;;;;;;;;;;;;;;;;;328745;30;1360;-84
2021/11/12 10:05:11;;;;;;;;;;;;;;;;;;328740;30;1489;-86
2021/11/12 10:05:38;;;;;;;;;;;;;;;;;;327631;30;1393;-88
2021/11/12 10:05:52;;;;;;;;;;;;;;;;;;328618;30;1420;-84
2021/11/12 10:06:22;;;;;;;;;;;;;;;;;;328888;30;1111;-85
2021/11/12 10:06:37;;;;;;;;;;;;;;;;;;327235;30;1473;-85
2021/11/12 10:06:47;;;;;;;;;;;;;;;;;;326559;30;1289;-86
2021/11/12 10:06:58;;;;;;;;;;;;;;;;;;326717;30;845;-83
2021/11/12 10:07:11;;;;;;;;;;;;;;;;;;326560;30;1635;-82
2021/11/12 10:07:23;;;;;;;;;;;;;;;;;;326660;30;932;-84
2021/11/12 10:07:35;;;;;;;;;;;;;;;;;;326689;30;822;-84
2021/11/12 10:07:45;;;;;;;;;;;;;;;;;;326679;30;936;-83
2021/11/12 10:07:56;;;;;;;;;;;;;;;;;;326898;30;928;-83
2021/11/12 10:08:25;;;;;;;;;;;;;;;;;;327848;30;857;-83
2021/11/12 10:08:38;;;;;;;;;;;;;;;;;;328989;30;1330;-85
2021/11/12 10:08:49;;;;;;;;;;;;;;;;;;329192;30;915;-84
2021/11/12 10:08:59;;;;;;;;;;;;;;;;;;329075;30;987;-84
2021/11/12 10:09:18;;;;;;;;;;;;;;;;;;328757;30;1018;-84
2021/11/12 10:09:28;;;;;;;;;;;;;;;;;;329005;30;1539;-83
2021/11/12 10:09:40;;;;;;;;;;;;;;;;;;329179;30;1042;-83
2021/11/12 10:10:09;;;;;;;;;;;;;;;;;;327863;30;1167;-82
2021/11/12 10:10:20;;;;;;;;;;;;;;;;;;327635;30;1492;-83
2021/11/12 10:10:30;;;;;;;;;;;;;;;;;;328304;30;963;-84
2021/11/12 10:10:45;;;;;;;;;;;;;;;;;;328938;30;1000;-84
2021/11/12 10:10:58;;;;;;;;;;;;;;;;;;330303;30;1433;-83
2021/11/12 10:11:11;;;;;;;;;;;;;;;;;;330303;30;880;-83
2021/11/12 10:11:25;;;;;;;;;;;;;;;;;;330401;30;808;-81
2021/11/12 10:11:45;;;;;;;;;;;;;;;;;;329061;30;1450;-81
2021/11/12 10:11:59;;;;;;;;;;;;;;;;;;329044;30;1143;-81
2021/11/12 10:12:10;;;;;;;;;;;;;;;;;;328988;30;1594;-81
2021/11/12 10:12:21;;;;;;;;;;;;;;;;;;329115;30;911;-82
2021/11/12 10:12:48;;;;;;;;;;;;;;;;;;329100;30;995;-80
2021/11/12 10:12:59;;;;;;;;;;;;;;;;;;328860;30;1279;-80
2021/11/12 10:13:20;;;;;;;;;;;;;;;;;;330158;30;903;-81
2021/11/12 10:13:33;;;;;;;;;;;;;;;;;;329873;30;1543;-80
2021/11/12 10:13:47;;;;;;;;;;;;;;;;;;329022;30;1802;-80
2021/11/12 10:14:04;;;;;;;;;;;;;;;;;;329156;30;730;-83
2021/11/12 10:14:23;;;;;;;;;;;;;;;;;;329444;30;936;-81
2021/11/12 10:14:55;;;;;;;;;;;;;;;;;;330392;30;962;-81
2021/11/12 10:15:08;;;;;;;;;;;;;;;;;;330149;30;1220;-80
2021/11/12 10:15:20;;;;;;;;;;;;;;;;;;330277;30;939;-81
2021/11/12 10:15:31;;;;;;;;;;;;;;;;;;330375;30;1023;-80
2021/11/12 10:15:50;;;;;;;;;;;;;;;;;;330355;30;1074;-80
2021/11/12 10:16:25;;;;;;;;;;;;;;;;;;330251;30;859;-79
2021/11/12 10:16:36;;;;;;;;;;;;;;;;;;330128;30;1576;-79
2021/11/12 10:16:53;;;;;;;;;;;;;;;;;;330381;30;923;-80
2021/11/12 10:17:30;;;;;;;;;;;;;;;;;;330380;30;986;-80
2021/11/12 10:17:42;;;;;;;;;;;;;;;;;;329038;30;1061;-80
2021/11/12 10:17:52;;;;;;;;;;;;;;;;;;329205;30;876;-80
2021/11/12 10:18:09;;;;;;;;;;;;;;;;;;330387;30;769;-81
2021/11/12 10:18:19;;;;;;;;;;;;;;;;;;328879;30;896;-80
2021/11/12 10:18:29;;;;;;;;;;;;;;;;;;329087;30;1601;-80
2021/11/12 10:18:59;;;;;;;;;;;;;;;;;;329139;30;840;-79
2021/11/12 10:19:14;;;;;;;;;;;;;;;;;;330126;30;1081;-81
2021/11/12 10:19:25;;;;;;;;;;;;;;;;;;330454;30;859;-82
2021/11/12 10:19:46;;;;;;;;;;;;;;;;;;330818;29;910;-80
2021/11/12 10:19:57;;;;;;;;;;;;;;;;;;331661;29;902;-83
2021/11/12 10:20:08;;;;;;;;;;;;;;;;;;331381;29;1224;-81
2021/11/12 10:20:21;;;;;;;;;;;;;;;;;;331425;29;1252;-83
2021/11/12 10:20:31;;;;;;;;;;;;;;;;;;331326;29;1195;-83
2021/11/12 10:20:55;;;;;;;;;;;;;;;;;;331696;29;891;-81
2021/11/12 10:21:06;;;;;;;;;;;;;;;;;;331573;29;828;-82
2021/11/12 10:21:16;;;;;;;;;;;;;;;;;;331640;29;883;-81
2021/11/12 10:21:34;;;;;;;;;;;;;;;;;;331475;29;1385;-81
2021/11/12 10:21:46;;;;;;;;;;;;;;;;;;331583;29;1220;-82
2021/11/12 10:22:04;;;;;;;;;;;;;;;;;;330177;29;1271;-81
2021/11/12 10:22:20;;;;;;;;;;;;;;;;;;330355;30;1173;-80
2021/11/12 10:22:32;;;;;;;;;;;;;;;;;;330404;30;868;-81
2021/11/12 10:22:45;;;;;;;;;;;;;;;;;;331481;29;1505;-80
2021/11/12 10:22:55;;;;;;;;;;;;;;;;;;331661;29;907;-80
2021/11/12 10:23:16;;;;;;;;;;;;;;;;;;331299;29;1430;-80
2021/11/12 10:23:30;;;;;;;;;;;;;;;;;;331727;29;850;-81
2021/11/12 10:23:42;;;;;;;;;;;;;;;;;;331699;29;920;-82
2021/11/12 10:23:57;;;;;;;;;;;;;;;;;;331661;29;1030;-81
2021/11/12 10:24:16;;;;;;;;;;;;;;;;;;332819;29;1103;-81
2021/11/12 10:24:28;;;;;;;;;;;;;;;;;;331680;29;903;-81
2021/11/12 10:24:40;;;;;;;;;;;;;;;;;;332241;29;985;-81
2021/11/12 10:24:51;;;;;;;;;;;;;;;;;;332702;29;879;-79
2021/11/12 10:25:03;;;;;;;;;;;;;;;;;;334411;29;2260;-80
2021/11/12 10:25:14;;;;;;;;;;;;;;;;;;336665;29;791;-83
2021/11/12 10:26:00;;;;;;;;;;;;;;;;;;336737;29;922;-83
2021/11/12 10:26:10;;;;;;;;;;;;;;;;;;334040;29;1026;-80
2021/11/12 10:26:39;;;;;;;;;;;;;;;;;;334212;29;587;-82